Time;durP1;ratioP1;P1;durP2;ratioP2;P2;SDS_P1;SDS_P2;PMS_P1;PMS_P2;Temp;Humidity;BMP_temperature;BMP_pressure;BME280_temperature;BME280_humidity;BME280_pressure;Samples;Min_cycle;Max_cycle;Signal;HPM_P1;HPM_P2
2021/07/19 00:01:55;;;;;;;6.72;3.05;;;;;;;21.01;59.63;98405.06;5089693;28;20039;-79
2021/07/19 00:04:21;;;;;;;8.32;2.95;;;;;;;21.00;59.72;98395.09;5090120;28;20034;-79
2021/07/19 00:06:48;;;;;;;5.03;3.03;;;;;;;20.95;60.15;98403.78;5090730;28;20057;-78
2021/07/19 00:09:14;;;;;;;5.28;3.10;;;;;;;20.97;60.62;98401.44;5089987;28;20160;-78
2021/07/19 00:11:41;;;;;;;6.18;3.15;;;;;;;20.94;60.40;98410.53;5090129;28;20032;-78
2021/07/19 00:14:07;;;;;;;4.32;3.00;;;;;;;20.91;60.07;98403.69;5090470;28;20028;-78
2021/07/19 00:16:32;;;;;;;6.70;3.13;;;;;;;20.87;60.46;98413.97;5090051;28;20073;-79
2021/07/19 00:18:58;;;;;;;9.55;3.80;;;;;;;20.85;60.22;98418.28;5092486;28;20028;-79
2021/07/19 00:21:24;;;;;;;9.18;3.15;;;;;;;20.81;60.29;98416.25;5087562;28;20103;-78
2021/07/19 00:23:50;;;;;;;5.85;2.88;;;;;;;20.79;60.09;98420.53;5090708;28;20031;-78
2021/07/19 00:26:15;;;;;;;4.40;3.10;;;;;;;20.79;60.67;98426.94;5089783;28;20481;-78
2021/07/19 00:28:41;;;;;;;7.32;2.95;;;;;;;20.78;60.45;98428.13;5092343;28;20042;-78
2021/07/19 00:31:06;;;;;;;5.93;3.20;;;;;;;20.81;60.31;98424.59;5089679;28;20016;-78
2021/07/19 00:33:32;;;;;;;5.88;3.53;;;;;;;20.85;60.15;98430.22;5091052;28;20024;-78
2021/07/19 00:35:57;;;;;;;4.32;2.80;;;;;;;20.91;59.73;98437.13;5089545;28;20060;-78
2021/07/19 00:38:23;;;;;;;5.78;3.08;;;;;;;20.93;60.28;98434.00;5092145;28;20047;-78
2021/07/19 00:40:48;;;;;;;5.05;3.00;;;;;;;20.89;60.04;98438.69;5094104;28;20486;-78
2021/07/19 00:43:14;;;;;;;6.88;3.10;;;;;;;20.88;60.03;98434.28;5094334;28;20035;-78
2021/07/19 00:45:39;;;;;;;7.65;3.20;;;;;;;20.88;60.03;98437.88;5093717;28;20062;-77
2021/07/19 00:48:06;;;;;;;5.35;2.72;;;;;;;20.90;60.40;98443.88;5093682;28;20024;-78
2021/07/19 00:50:33;;;;;;;4.43;2.85;;;;;;;20.91;60.41;98439.94;5093350;28;20096;-77
2021/07/19 00:53:00;;;;;;;4.80;2.97;;;;;;;20.93;60.30;98442.38;5094148;28;20073;-78
2021/07/19 00:55:31;;;;;;;9.30;3.05;;;;;;;20.91;60.03;98441.91;5094341;28;20047;-77
2021/07/19 00:57:58;;;;;;;5.25;2.80;;;;;;;20.90;60.37;98443.88;5094446;28;20127;-78
2021/07/19 01:00:24;;;;;;;4.82;2.90;;;;;;;20.88;60.16;98445.44;5096932;28;20023;-78
2021/07/19 01:02:51;;;;;;;5.00;3.00;;;;;;;20.89;60.27;98452.63;5094573;28;20047;-78
2021/07/19 01:05:17;;;;;;;5.80;3.13;;;;;;;20.87;59.94;98446.63;5096677;28;20016;-79
2021/07/19 01:07:44;;;;;;;7.40;2.80;;;;;;;20.88;60.16;98453.81;5094509;28;20489;-78
2021/07/19 01:10:17;;;;;;;6.40;3.20;;;;;;;20.88;60.10;98453.81;5093719;28;20028;-78
2021/07/19 01:12:49;;;;;;;5.13;3.05;;;;;;;20.90;60.32;98457.03;5094372;28;20110;-78
2021/07/19 01:15:15;;;;;;;6.75;3.05;;;;;;;20.90;60.18;98449.47;5096651;28;20043;-79
2021/07/19 01:17:41;;;;;;;5.45;3.53;;;;;;;20.89;60.37;98447.06;5095167;28;20023;-78
2021/07/19 01:20:08;;;;;;;5.88;3.25;;;;;;;20.86;60.62;98443.00;5094294;28;20027;-78
2021/07/19 01:22:52;;;;;;;8.20;3.53;;;;;;;20.84;60.56;98447.34;5094583;28;20044;-77
2021/07/19 01:25:36;;;;;;;6.00;3.20;;;;;;;20.85;60.46;98446.97;5092556;28;20123;-78
2021/07/19 01:28:07;;;;;;;6.03;3.40;;;;;;;20.85;60.44;98451.75;5096264;28;20059;-78
2021/07/19 01:30:35;;;;;;;5.78;3.22;;;;;;;20.84;60.27;98450.13;5096444;28;20100;-78
2021/07/19 01:33:03;;;;;;;6.88;3.75;;;;;;;20.81;61.25;98446.91;5096534;28;20042;-78
2021/07/19 01:35:32;;;;;;;4.82;2.92;;;;;;;20.74;60.43;98455.06;5094939;28;20081;-79
2021/07/19 01:38:00;;;;;;;6.53;3.40;;;;;;;20.70;60.57;98445.81;5096027;28;20375;-78
2021/07/19 01:40:26;;;;;;;10.32;3.60;;;;;;;20.70;60.39;98461.75;5091385;28;20510;-79
2021/07/19 01:42:52;;;;;;;5.65;3.50;;;;;;;20.67;60.28;98447.38;5093571;28;20114;-78
2021/07/19 01:45:18;;;;;;;7.40;2.60;;;;;;;20.70;60.17;98453.38;5093542;28;20517;-77
2021/07/19 01:47:44;;;;;;;7.03;3.40;;;;;;;20.67;60.34;98449.34;5091309;28;20089;-77
2021/07/19 01:50:10;;;;;;;5.57;3.20;;;;;;;20.67;60.28;98449.34;5092607;28;20024;-77
2021/07/19 01:52:37;;;;;;;6.50;3.28;;;;;;;20.62;60.55;98453.22;5093350;28;20028;-77
2021/07/19 01:55:04;;;;;;;5.90;3.42;;;;;;;20.60;60.43;98452.78;5093251;28;20040;-78
2021/07/19 01:57:30;;;;;;;5.97;2.97;;;;;;;20.61;60.49;98454.41;5090457;28;20493;-78
2021/07/19 01:59:58;;;;;;;7.38;3.42;;;;;;;20.63;60.37;98452.06;5092278;28;20401;-78
2021/07/19 02:02:24;;;;;;;5.47;3.25;;;;;;;20.63;60.32;98457.63;5093817;28;20040;-77
2021/07/19 02:04:50;;;;;;;7.90;3.15;;;;;;;20.61;60.65;98451.59;5124764;27;20020;-77
2021/07/19 02:07:19;;;;;;;5.18;3.10;;;;;;;20.63;60.50;98462.38;5092292;28;20027;-77
2021/07/19 02:09:47;;;;;;;6.63;3.28;;;;;;;20.59;60.28;98456.72;5092277;28;20591;-78
2021/07/19 02:12:13;;;;;;;10.80;3.60;;;;;;;20.60;60.31;98460.31;5092339;28;20040;-74
2021/07/19 02:14:40;;;;;;;7.07;3.42;;;;;;;20.58;60.67;98451.53;5092660;28;20047;-76
2021/07/19 02:17:07;;;;;;;6.18;3.55;;;;;;;20.56;60.49;98459.44;5094156;28;20545;-75
2021/07/19 02:19:36;;;;;;;7.53;3.70;;;;;;;20.53;60.69;98453.44;5091350;28;20031;-75
2021/07/19 02:22:03;;;;;;;7.80;3.72;;;;;;;20.50;60.59;98456.13;5092282;28;20028;-76
2021/07/19 02:24:29;;;;;;;7.15;3.85;;;;;;;20.49;60.75;98463.69;5097291;28;20027;-75
2021/07/19 02:26:56;;;;;;;5.75;3.53;;;;;;;20.52;60.72;98460.19;5099904;28;20023;-75
2021/07/19 02:29:22;;;;;;;7.68;3.75;;;;;;;20.48;61.16;98462.06;5093895;28;20109;-75
2021/07/19 02:31:49;;;;;;;6.32;3.42;;;;;;;20.38;60.72;98457.06;5092066;28;20509;-75
2021/07/19 02:34:18;;;;;;;8.45;3.65;;;;;;;20.38;60.72;98451.47;5090823;28;20038;-75
2021/07/19 02:36:44;;;;;;;8.30;4.00;;;;;;;20.42;60.95;98460.72;5091902;28;20374;-74
2021/07/19 02:39:10;;;;;;;8.68;3.60;;;;;;;20.37;60.76;98453.47;5090249;28;20103;-74
2021/07/19 02:41:36;;;;;;;7.20;3.58;;;;;;;20.38;60.97;98445.91;5094599;28;20174;-74
2021/07/19 02:44:03;;;;;;;7.10;3.70;;;;;;;20.35;61.08;98463.34;5092206;28;20034;-74
2021/07/19 02:46:30;;;;;;;10.02;3.85;;;;;;;20.34;60.94;98462.56;5092563;28;20370;-73
2021/07/19 02:48:58;;;;;;;6.82;4.03;;;;;;;20.33;60.91;98452.56;5092586;28;20097;-73
2021/07/19 02:51:27;;;;;;;8.90;4.13;;;;;;;20.34;61.00;98462.56;5090730;28;20028;-74
2021/07/19 02:53:53;;;;;;;7.85;3.92;;;;;;;20.34;61.20;98456.97;5123281;27;20512;-74
2021/07/19 02:56:23;;;;;;;6.07;3.60;;;;;;;20.34;61.19;98458.94;5090358;28;20081;-74
2021/07/19 02:58:49;;;;;;;8.38;3.97;;;;;;;20.30;61.17;98456.09;5091889;28;20020;-74
2021/07/19 03:01:18;;;;;;;7.53;4.03;;;;;;;20.28;60.98;98455.63;5090528;28;20609;-73
2021/07/19 03:03:46;;;;;;;4.72;3.60;;;;;;;20.27;61.07;98459.59;5091430;28;20068;-73
2021/07/19 03:06:16;;;;;;;6.80;3.72;;;;;;;20.28;61.46;98454.81;5090709;28;20093;-73
2021/07/19 03:08:43;;;;;;;7.25;4.22;;;;;;;20.24;61.42;98446.38;5090735;28;20026;-74
2021/07/19 03:11:15;;;;;;;8.40;3.75;;;;;;;20.25;61.43;98456.34;5091058;28;20034;-74
2021/07/19 03:13:43;;;;;;;7.50;4.03;;;;;;;20.25;61.70;98458.31;5090086;28;20054;-74
2021/07/19 03:16:11;;;;;;;7.07;4.47;;;;;;;20.20;61.90;98460.22;5090962;28;20556;-74
2021/07/19 03:18:39;;;;;;;7.47;4.13;;;;;;;20.14;61.26;98464.47;5091146;28;20028;-75
2021/07/19 03:21:05;;;;;;;9.95;4.55;;;;;;;20.11;61.56;98458.78;5089485;28;20465;-74
2021/07/19 03:23:33;;;;;;;7.95;4.50;;;;;;;20.08;62.44;98458.34;5091167;28;20028;-73
2021/07/19 03:26:00;;;;;;;7.30;4.32;;;;;;;20.01;62.20;98458.16;5092380;28;20035;-74
2021/07/19 03:28:26;;;;;;;8.93;4.57;;;;;;;19.95;62.38;98461.56;5092233;28;20069;-74
2021/07/19 03:30:52;;;;;;;8.52;4.43;;;;;;;19.89;62.33;98449.91;5091821;28;20032;-73
2021/07/19 03:33:18;;;;;;;10.68;4.45;;;;;;;19.91;62.23;98453.94;5091958;28;20028;-74
2021/07/19 03:35:45;;;;;;;8.02;4.55;;;;;;;19.87;62.42;98450.22;5092016;28;20122;-74
2021/07/19 03:38:14;;;;;;;12.00;4.82;;;;;;;19.86;63.14;98458.94;5091668;28;20456;-74
2021/07/19 03:40:40;;;;;;;9.65;5.38;;;;;;;19.81;62.69;98448.88;5085980;28;20451;-73
2021/07/19 03:43:06;;;;;;;9.57;5.75;;;;;;;19.81;62.87;98462.00;5090897;28;20133;-74
2021/07/19 03:45:32;;;;;;;8.50;4.90;;;;;;;;;;5091194;28;20466;-73
2021/07/19 03:47:58;;;;;;;10.48;5.40;;;;;;;19.79;62.83;98468.72;5090448;28;20028;-74
2021/07/19 03:50:24;;;;;;;10.73;5.70;;;;;;;19.79;62.87;98463.16;5090209;28;20107;-74
2021/07/19 03:52:51;;;;;;;10.40;5.38;;;;;;;19.81;62.36;98460.00;5090777;28;20024;-73
2021/07/19 03:55:16;;;;;;;9.30;4.72;;;;;;;19.82;62.39;98466.41;5090735;28;20028;-74
2021/07/19 03:57:43;;;;;;;11.18;5.60;;;;;;;19.82;62.73;98461.63;5090645;28;20497;-74
2021/07/19 04:00:15;;;;;;;10.73;5.20;;;;;;;19.79;62.27;98465.94;5088617;28;20046;-74
2021/07/19 04:02:44;;;;;;;10.20;5.00;;;;;;;19.84;62.48;98464.06;5090215;28;20531;-74
2021/07/19 04:05:14;;;;;;;12.75;5.57;;;;;;;19.85;62.64;98465.69;5091451;28;20047;-74
2021/07/19 04:07:42;;;;;;;10.25;5.43;;;;;;;19.83;62.15;98474.38;5091148;28;20028;-74
2021/07/19 04:10:10;;;;;;;9.70;5.88;;;;;;;19.83;62.72;98468.00;5090576;28;20055;-74
2021/07/19 04:12:38;;;;;;;10.05;5.25;;;;;;;19.80;62.25;98463.97;5090880;28;20382;-74
2021/07/19 04:15:05;;;;;;;11.70;5.95;;;;;;;19.81;62.42;98470.34;5089465;28;20073;-74
2021/07/19 04:17:32;;;;;;;10.45;5.93;;;;;;;19.75;62.95;98467.81;5089566;28;20115;-73
2021/07/19 04:20:17;;;;;;;11.57;6.05;;;;;;;19.72;62.75;98470.53;5090378;28;20427;-74
2021/07/19 04:22:43;;;;;;;9.98;5.85;;;;;;;19.69;62.75;98471.25;5090950;28;20036;-74
2021/07/19 04:25:10;;;;;;;8.95;5.55;;;;;;;19.66;62.67;98474.72;5091304;28;20020;-74
2021/07/19 04:27:41;;;;;;;9.52;5.88;;;;;;;19.63;63.07;98485.41;5090901;28;20032;-74
2021/07/19 04:30:07;;;;;;;14.15;6.28;;;;;;;19.60;62.67;98479.72;5089102;28;20538;-74
2021/07/19 04:32:32;;;;;;;10.48;5.35;;;;;;;19.62;62.59;98491.31;5090947;28;20058;-74
2021/07/19 04:34:58;;;;;;;12.10;6.20;;;;;;;19.61;62.63;98482.16;5090679;28;20133;-74
2021/07/19 04:37:24;;;;;;;11.65;5.85;;;;;;;19.68;62.68;98489.09;5090987;28;20101;-74
2021/07/19 04:39:49;;;;;;;12.02;6.72;;;;;;;19.68;62.95;98481.53;5089988;28;20117;-73
2021/07/19 04:42:15;;;;;;;10.45;6.15;;;;;;;19.67;62.83;98479.94;5090779;28;20027;-74
2021/07/19 04:44:41;;;;;;;12.77;6.15;;;;;;;19.68;62.53;98480.75;5090394;28;20039;-73
2021/07/19 04:47:07;;;;;;;10.10;6.63;;;;;;;19.66;62.79;98472.75;5090794;28;20420;-74
2021/07/19 04:49:35;;;;;;;14.23;6.97;;;;;;;19.61;62.93;98487.72;5090398;28;20024;-74
2021/07/19 04:52:01;;;;;;;10.80;6.22;;;;;;;19.57;62.75;98481.25;5090529;28;20024;-74
2021/07/19 04:54:31;;;;;;;13.00;7.30;;;;;;;19.56;62.70;98476.88;5090627;28;20054;-74
2021/07/19 04:57:00;;;;;;;11.05;6.35;;;;;;;19.59;62.67;98478.09;5089681;28;20028;-74
2021/07/19 04:59:29;;;;;;;12.93;6.40;;;;;;;19.59;62.26;98473.38;5090283;28;20549;-74
2021/07/19 05:01:55;;;;;;;10.55;6.32;;;;;;;19.61;62.22;98476.59;5090336;28;20060;-74
2021/07/19 05:04:25;;;;;;;12.30;6.53;;;;;;;19.63;62.21;98477.06;5090856;28;20028;-74
2021/07/19 05:06:52;;;;;;;11.52;6.60;;;;;;;19.68;62.18;98489.09;5090602;28;20029;-74
2021/07/19 05:09:19;;;;;;;12.23;6.53;;;;;;;19.68;61.75;98487.09;5090030;28;20529;-73
2021/07/19 05:11:47;;;;;;;12.10;6.30;;;;;;;19.66;61.77;98483.06;5090409;28;20041;-73
2021/07/19 05:14:12;;;;;;;13.38;6.50;;;;;;;19.72;61.82;98481.66;5090645;28;20024;-74
2021/07/19 05:16:39;;;;;;;9.43;6.47;;;;;;;19.73;61.68;98472.94;5090780;28;20028;-73
2021/07/19 05:19:05;;;;;;;13.35;7.10;;;;;;;19.74;61.69;98477.34;5090333;28;20156;-73
2021/07/19 05:21:35;;;;;;;13.85;7.03;;;;;;;19.76;61.38;98477.00;5090052;28;20051;-73
2021/07/19 05:24:02;;;;;;;9.48;6.03;;;;;;;19.73;61.25;98486.06;5091147;28;20050;-74
2021/07/19 05:26:28;;;;;;;12.38;7.22;;;;;;;19.74;61.12;98482.09;5094022;28;20492;-74
2021/07/19 05:28:56;;;;;;;10.88;6.28;;;;;;;19.74;61.23;98482.91;5094295;28;20106;-74
2021/07/19 05:31:22;;;;;;;11.77;6.13;;;;;;;19.76;60.92;98479.78;5093607;28;20434;-74
2021/07/19 05:33:47;;;;;;;14.25;6.85;;;;;;;19.80;60.74;98480.66;5093987;28;20085;-74
2021/07/19 05:36:13;;;;;;;13.00;7.35;;;;;;;19.83;60.71;98481.94;5094026;28;20033;-73
2021/07/19 05:38:41;;;;;;;12.65;6.80;;;;;;;19.90;61.04;98471.81;5093938;28;20466;-74
2021/07/19 05:41:08;;;;;;;11.02;6.75;;;;;;;19.98;60.81;98480.34;5093180;28;20021;-74
2021/07/19 05:43:33;;;;;;;9.55;6.38;;;;;;;20.03;60.70;98486.44;5093817;28;20032;-73
2021/07/19 05:45:59;;;;;;;12.00;6.38;;;;;;;20.07;60.55;98489.34;5093763;28;20024;-74
2021/07/19 05:48:24;;;;;;;14.23;7.20;;;;;;;20.06;59.96;98482.16;5093755;28;20021;-74
2021/07/19 05:50:50;;;;;;;10.38;6.13;;;;;;;20.06;59.91;98487.72;5093151;28;20020;-73
2021/07/19 05:53:16;;;;;;;10.73;6.30;;;;;;;20.07;60.07;98483.78;5093779;28;20016;-73
2021/07/19 05:55:42;;;;;;;11.65;6.60;;;;;;;20.12;60.07;98485.47;5092355;28;20039;-74
2021/07/19 05:58:07;;;;;;;10.55;6.28;;;;;;;20.15;59.93;98488.34;5093160;28;20492;-74
2021/07/19 06:00:34;;;;;;;12.70;6.68;;;;;;;20.20;59.90;98488.06;5093039;28;20031;-74
2021/07/19 06:02:59;;;;;;;12.38;7.13;;;;;;;20.27;59.70;98492.19;5092094;28;20059;-74
2021/07/19 06:05:25;;;;;;;12.82;6.55;;;;;;;20.28;58.86;98497.41;5093543;28;20394;-74
2021/07/19 06:07:51;;;;;;;9.70;6.15;;;;;;;20.30;58.79;98495.06;5093584;28;20027;-73
2021/07/19 06:10:16;;;;;;;11.13;5.93;;;;;;;20.28;59.19;98494.63;5092057;28;20506;-73
2021/07/19 06:12:43;;;;;;;13.70;6.30;;;;;;;20.29;58.83;98493.47;5093275;28;20036;-74
2021/07/19 06:15:10;;;;;;;12.43;6.10;;;;;;;20.29;58.43;98492.63;5092909;28;20035;-73
2021/07/19 06:17:39;;;;;;;12.13;6.55;;;;;;;20.30;58.39;98503.44;5093310;28;20024;-74
2021/07/19 06:20:10;;;;;;;11.75;6.50;;;;;;;20.34;58.90;98497.94;5091651;28;20371;-73
2021/07/19 06:22:36;;;;;;;10.85;6.50;;;;;;;20.44;58.84;98500.19;5093429;28;20485;-73
2021/07/19 06:25:03;;;;;;;11.70;7.38;;;;;;;20.46;58.18;98499.78;5093549;28;20020;-72
2021/07/19 06:27:28;;;;;;;12.13;6.22;;;;;;;20.45;58.61;98495.41;5093354;28;20024;-73
2021/07/19 06:29:54;;;;;;;10.15;5.97;;;;;;;20.51;58.77;98493.94;5091998;28;20039;-73
2021/07/19 06:32:19;;;;;;;13.52;6.25;;;;;;;20.56;58.09;98501.25;5093272;28;20035;-74
2021/07/19 06:34:44;;;;;;;9.73;5.50;;;;;;;20.53;58.02;98500.78;5090318;28;20111;-74
2021/07/19 06:37:10;;;;;;;14.73;6.82;;;;;;;20.53;57.69;98500.78;5091712;28;20032;-75
2021/07/19 06:39:35;;;;;;;12.18;6.03;;;;;;;20.53;58.09;98506.38;5086752;28;20108;-76
2021/07/19 06:42:00;;;;;;;11.38;6.25;;;;;;;20.57;57.48;98514.00;5092434;28;20016;-75
2021/07/19 06:44:26;;;;;;;11.80;6.55;;;;;;;20.62;57.94;98508.13;5091855;28;20039;-74
2021/07/19 06:46:56;;;;;;;12.20;5.97;;;;;;;20.71;58.06;98507.94;5090724;28;20024;-75
2021/07/19 06:49:21;;;;;;;13.30;6.00;;;;;;;20.82;58.23;98512.63;5090722;28;20020;-72
2021/07/19 06:51:47;;;;;;;10.68;6.22;;;;;;;20.91;58.01;98504.03;5092207;28;20032;-72
2021/07/19 06:54:12;;;;;;;9.93;5.95;;;;;;;21.00;57.95;98511.41;5073230;28;20038;-72
2021/07/19 06:56:37;;;;;;;11.82;6.45;;;;;;;21.06;58.00;98507.94;5091895;28;20028;-73
2021/07/19 06:59:03;;;;;;;12.68;6.20;;;;;;;21.16;57.55;98497.38;5092170;28;20024;-70
2021/07/19 07:01:28;;;;;;;10.27;6.22;;;;;;;21.25;57.62;98498.78;5090820;28;20404;-75
2021/07/19 07:03:53;;;;;;;9.32;6.03;;;;;;;21.29;57.45;98489.69;5091764;28;20054;-74
2021/07/19 07:06:19;;;;;;;9.52;5.53;;;;;;;21.32;55.12;98492.56;5092058;28;20035;-71
2021/07/19 07:08:44;;;;;;;12.23;6.20;;;;;;;21.25;55.72;98492.41;5091618;28;20461;-74
2021/07/19 07:11:09;;;;;;;11.68;6.82;;;;;;;21.30;56.08;98497.69;5091506;28;20113;-77
2021/07/19 07:13:35;;;;;;;10.80;6.75;;;;;;;21.35;56.12;98505.78;5090993;28;20027;-75
2021/07/19 07:16:00;;;;;;;11.75;6.78;;;;;;;21.38;56.17;98505.03;5090204;28;20085;-74
2021/07/19 07:18:25;;;;;;;15.23;6.53;;;;;;;21.40;55.58;98504.66;5091530;28;20020;-74
2021/07/19 07:20:51;;;;;;;9.15;5.70;;;;;;;21.39;55.02;98509.44;5091554;28;20028;-72
2021/07/19 07:23:16;;;;;;;12.40;6.60;;;;;;;21.38;55.07;98504.22;5090661;28;20028;-72
2021/07/19 07:25:41;;;;;;;9.07;6.25;;;;;;;21.44;55.38;98513.09;5091327;28;20028;-72
2021/07/19 07:28:07;;;;;;;11.85;7.25;;;;;;;21.51;55.41;98514.06;5090337;28;20020;-74
2021/07/19 07:30:32;;;;;;;9.70;6.15;;;;;;;21.58;55.33;98513.38;5090512;28;20032;-73
2021/07/19 07:33:00;;;;;;;10.13;6.18;;;;;;;21.64;54.85;98508.31;5090652;28;20111;-73
2021/07/19 07:35:25;;;;;;;11.18;6.55;;;;;;;21.70;55.08;98498.47;5090615;28;20047;-72
2021/07/19 07:37:51;;;;;;;10.93;6.43;;;;;;;21.79;55.01;98507.41;5090910;28;20028;-71
2021/07/19 07:40:18;;;;;;;11.10;6.22;;;;;;;21.87;54.96;98508.34;5089302;28;20035;-72
2021/07/19 07:42:45;;;;;;;10.23;6.70;;;;;;;21.91;54.71;98514.81;5089354;28;20020;-72
2021/07/19 07:45:11;;;;;;;12.98;7.20;;;;;;;21.95;54.21;98509.31;5088729;28;20051;-73
2021/07/19 07:47:38;;;;;;;13.07;7.15;;;;;;;21.97;54.21;98513.31;5086604;28;20375;-73
2021/07/19 07:50:05;;;;;;;13.68;6.95;;;;;;;22.00;53.51;98518.16;5088832;28;20032;-73
2021/07/19 07:52:30;;;;;;;10.82;6.72;;;;;;;21.98;53.48;98519.72;5088573;28;20032;-73
2021/07/19 07:54:56;;;;;;;13.57;6.38;;;;;;;22.00;53.54;98520.97;5087433;28;20039;-71
2021/07/19 07:57:21;;;;;;;13.85;7.25;;;;;;;22.06;53.97;98524.25;5086275;28;20024;-72
2021/07/19 07:59:46;;;;;;;10.02;6.50;;;;;;;22.11;53.84;98512.75;5089408;28;20031;-73
2021/07/19 08:02:12;;;;;;;11.50;6.93;;;;;;;22.18;53.36;98523.28;5090250;28;20119;-72
2021/07/19 08:04:37;;;;;;;11.60;6.82;;;;;;;22.27;53.69;98514.63;5090858;28;20074;-72
2021/07/19 08:07:03;;;;;;;14.52;7.88;;;;;;;22.30;53.41;98519.47;5089807;28;20389;-72
2021/07/19 08:09:29;;;;;;;11.68;7.38;;;;;;;22.38;53.42;98515.63;5089988;28;20481;-72
2021/07/19 08:11:55;;;;;;;10.82;7.22;;;;;;;22.45;53.21;98504.56;5084667;28;20031;-73
2021/07/19 08:14:20;;;;;;;15.27;7.32;;;;;;;22.53;52.96;98511.09;5090127;28;20028;-74
2021/07/19 08:16:45;;;;;;;12.52;8.15;;;;;;;22.60;52.67;98516.78;5072003;28;20028;-73
2021/07/19 08:19:11;;;;;;;16.90;8.35;;;;;;;22.60;52.18;98516.78;5089950;28;20020;-72
2021/07/19 08:21:39;;;;;;;13.07;7.68;;;;;;;22.65;51.94;98510.06;5090068;28;20063;-73
2021/07/19 08:24:05;;;;;;;14.75;8.50;;;;;;;22.66;51.82;98508.06;5091753;28;20036;-74
2021/07/19 08:26:31;;;;;;;15.52;8.27;;;;;;;22.69;51.03;98510.94;5088479;28;20039;-73
2021/07/19 08:28:56;;;;;;;14.20;8.45;;;;;;;22.72;51.13;98512.16;5090535;28;20032;-74
2021/07/19 08:31:27;;;;;;;11.63;7.25;;;;;;;22.76;51.53;98510.22;5090270;28;20024;-73
2021/07/19 08:33:54;;;;;;;13.00;8.43;;;;;;;22.81;51.64;98512.69;5090413;28;20149;-74
2021/07/19 08:36:19;;;;;;;13.10;8.65;;;;;;;22.87;51.54;98507.56;5089743;28;20047;-74
2021/07/19 08:38:47;;;;;;;12.35;7.07;;;;;;;22.92;51.04;98512.03;5091268;28;20032;-74
2021/07/19 08:41:12;;;;;;;12.82;7.90;;;;;;;22.94;50.99;98515.25;5089246;28;20047;-73
2021/07/19 08:43:40;;;;;;;13.40;8.52;;;;;;;22.97;50.85;98506.91;5086906;28;20485;-75
2021/07/19 08:46:06;;;;;;;15.48;8.07;;;;;;;23.05;51.10;98507.81;5087792;28;20555;-70
2021/07/19 08:48:33;;;;;;;13.23;7.38;;;;;;;23.13;51.39;98509.50;5088692;28;20039;-74
2021/07/19 08:51:00;;;;;;;13.65;8.30;;;;;;;23.22;51.00;98508.44;5088548;28;20047;-74
2021/07/19 08:53:27;;;;;;;14.85;8.38;;;;;;;23.24;51.03;98506.09;5089652;28;20059;-74
2021/07/19 08:55:55;;;;;;;17.23;8.55;;;;;;;23.29;50.04;98508.56;5089246;28;20039;-74
2021/07/19 08:58:21;;;;;;;11.45;7.82;;;;;;;23.34;50.20;98506.22;5088297;28;20024;-74
2021/07/19 09:00:47;;;;;;;12.57;7.65;;;;;;;23.40;49.29;98505.88;5091681;28;20084;-75
2021/07/19 09:03:12;;;;;;;14.07;8.02;;;;;;;23.44;50.08;98507.53;5092420;28;20052;-74
2021/07/19 09:05:38;;;;;;;12.43;8.18;;;;;;;23.45;50.36;98509.13;5092404;28;20020;-74
2021/07/19 09:08:05;;;;;;;12.73;7.72;;;;;;;23.55;49.90;98504.03;5091971;28;20060;-75
2021/07/19 09:10:31;;;;;;;12.15;8.02;;;;;;;23.61;50.40;98497.75;5092238;28;20031;-73
2021/07/19 09:13:00;;;;;;;13.02;7.57;;;;;;;23.72;50.24;98497.84;5093122;28;20028;-74
2021/07/19 09:15:34;;;;;;;12.90;7.85;;;;;;;23.86;50.81;98496.34;5093324;28;20545;-74
2021/07/19 09:18:00;;;;;;;12.77;7.45;;;;;;;23.98;50.75;98489.69;5092269;28;20035;-74
2021/07/19 09:20:32;;;;;;;21.50;8.25;;;;;;;24.06;49.92;98491.38;5092814;28;20020;-79
2021/07/19 09:22:57;;;;;;;14.02;8.35;;;;;;;24.13;50.02;98491.44;5092993;28;20478;-76
2021/07/19 09:25:23;;;;;;;15.35;7.55;;;;;;;24.20;49.76;98488.72;5093318;28;20576;-77
2021/07/19 09:27:57;;;;;;;13.98;8.75;;;;;;;24.18;47.01;98487.50;5092694;28;20482;-74
2021/07/19 09:30:26;;;;;;;12.65;8.43;;;;;;;24.12;47.17;98481.44;5090330;28;20024;-75
2021/07/19 09:33:16;;;;;;;13.75;7.40;;;;;;;24.09;47.31;98487.81;5091379;28;20020;-74
2021/07/19 09:35:42;;;;;;;;;;;;;;;24.06;47.19;98477.38;5089348;28;20048;-75
2021/07/19 09:38:13;;;;;;;12.75;7.75;;;;;;;24.08;47.89;98472.19;5090556;28;19915;-76
2021/07/19 09:40:40;;;;;;;11.52;7.35;;;;;;;24.15;48.07;98485.47;5090476;28;20024;-76
2021/07/19 09:43:15;;;;;;;12.60;7.13;;;;;;;24.20;47.96;98485.13;5091281;28;20042;-77
2021/07/19 09:45:41;;;;;;;12.93;7.60;;;;;;;24.27;48.10;98479.53;5093191;28;20030;-76
2021/07/19 09:48:09;;;;;;;12.57;7.38;;;;;;;24.33;47.75;98472.38;5092700;28;20405;-76
2021/07/19 09:50:40;;;;;;;12.70;7.47;;;;;;;24.39;47.82;98470.03;5093509;28;20131;-76
2021/07/19 09:53:05;;;;;;;11.27;6.30;;;;;;;24.46;47.03;98475.69;5093298;28;20028;-76
2021/07/19 09:55:31;;;;;;;12.15;7.32;;;;;;;24.46;46.35;98477.69;5093310;28;20039;-75
2021/07/19 09:58:01;;;;;;;13.25;7.57;;;;;;;24.47;46.73;98470.88;5091952;28;20021;-75
2021/07/19 10:00:28;;;;;;;11.93;7.25;;;;;;;24.51;47.14;98463.31;5092322;28;20027;-75
2021/07/19 10:02:53;;;;;;;12.18;8.35;;;;;;;24.60;47.51;98463.78;5088741;28;20056;-76
2021/07/19 10:05:27;;;;;;;14.73;8.93;;;;;;;24.61;45.62;98467.38;5093414;28;20028;-76
2021/07/19 10:07:53;;;;;;;15.13;8.30;;;;;;;24.58;46.19;98463.38;5093053;28;20103;-76
2021/07/19 10:10:39;;;;;;;11.93;7.28;;;;;;;24.67;47.50;98469.41;5092438;28;20028;-77
2021/07/19 10:13:07;;;;;;;13.27;7.65;;;;;;;24.84;46.35;98460.72;5093122;28;20101;-74
2021/07/19 10:15:33;;;;;;;11.77;7.38;;;;;;;24.92;46.96;98462.34;5091872;28;20066;-75
2021/07/19 10:17:59;;;;;;;12.23;7.10;;;;;;;25.04;47.15;98453.59;5091763;28;20324;-75
2021/07/19 10:20:25;;;;;;;12.23;7.80;;;;;;;25.10;44.32;98446.41;5091257;28;20052;-74
2021/07/19 10:22:51;;;;;;;13.77;7.78;;;;;;;25.08;46.07;98443.19;5092600;28;20072;-76
2021/07/19 10:25:18;;;;;;;14.95;7.38;;;;;;;25.12;46.63;98448.81;5092658;28;20020;-75
2021/07/19 10:27:44;;;;;;;15.15;7.53;;;;;;;25.20;46.37;98430.03;5091811;28;20012;-75
2021/07/19 10:30:10;;;;;;;15.13;7.55;;;;;;;25.27;45.67;98439.25;5090103;28;20028;-77
2021/07/19 10:32:37;;;;;;;11.57;8.38;;;;;;;25.34;44.95;98444.09;5092808;28;20051;-74
2021/07/19 10:35:05;;;;;;;13.75;9.02;;;;;;;25.37;45.14;98448.91;5092516;28;20028;-75
2021/07/19 10:37:41;;;;;;;12.77;7.07;;;;;;;25.39;45.17;98435.28;5092129;28;20627;-75
2021/07/19 10:40:18;;;;;;;10.43;7.18;;;;;;;25.47;46.06;98436.16;5091436;28;20027;-76
2021/07/19 10:42:43;;;;;;;13.15;7.28;;;;;;;25.59;46.12;98436.94;5092990;28;20031;-75
2021/07/19 10:45:18;;;;;;;13.30;7.40;;;;;;;25.67;46.06;98430.97;5092611;28;20032;-75
2021/07/19 10:47:46;;;;;;;11.45;8.00;;;;;;;25.78;45.54;98433.78;5091178;28;20024;-76
2021/07/19 10:50:16;;;;;;;11.50;7.00;;;;;;;25.80;43.94;98437.00;5092139;28;20031;-76
2021/07/19 10:52:41;;;;;;;;;;;;;;;25.76;44.64;98436.19;5093089;28;20266;-76
2021/07/19 10:55:09;;;;;;;15.18;7.70;;;;;;;25.76;44.74;98432.56;5091937;28;19919;-76
2021/07/19 10:57:41;;;;;;;16.05;7.20;;;;;;;25.88;45.70;98428.56;5092311;28;20114;-77
2021/07/19 11:00:13;;;;;;;10.00;6.55;;;;;;;26.04;44.99;98430.97;5091944;28;20028;-76
2021/07/19 11:02:39;;;;;;;11.55;6.97;;;;;;;26.13;45.49;98422.97;5092243;28;20044;-76
2021/07/19 11:05:06;;;;;;;12.68;6.68;;;;;;;26.20;45.52;98417.34;5092535;28;20039;-76
2021/07/19 11:07:43;;;;;;;13.02;7.05;;;;;;;26.25;44.70;98421.75;5092537;28;20086;-77
2021/07/19 11:10:16;;;;;;;14.75;7.47;;;;;;;26.24;44.57;98420.16;5090788;28;20020;-76
2021/07/19 11:12:49;;;;;;;10.32;6.55;;;;;;;26.28;44.70;98412.53;5091799;28;20070;-76
2021/07/19 11:15:14;;;;;;;10.27;6.75;;;;;;;26.33;44.24;98408.50;5091113;28;20532;-76
2021/07/19 11:17:40;;;;;;;12.10;6.90;;;;;;;26.34;44.67;98408.06;5092147;28;20055;-75
2021/07/19 11:20:18;;;;;;;11.90;6.80;;;;;;;26.46;45.03;98404.06;5089641;28;20028;-76
2021/07/19 11:22:46;;;;;;;14.18;7.30;;;;;;;26.51;44.75;98395.19;5092030;28;20035;-76
2021/07/19 11:25:14;;;;;;;13.95;6.80;;;;;;;26.54;44.91;98390.78;5092039;28;20024;-77
2021/07/19 11:27:46;;;;;;;11.18;7.32;;;;;;;26.58;44.52;98403.59;5092133;28;20024;-76
2021/07/19 11:30:23;;;;;;;11.88;7.40;;;;;;;26.44;43.21;98404.44;5087371;28;20031;-77